Terminal Aerodrome Forecast
Issued by NWS

Home | Current Version | Previous Version | Text Only | Print | Product List | Glossary On
Versions: 1 2 3 4 5 6 7 8 9 10 11 12 13 14 15
000
FTUS41 KBGM 300910 AAA
TAFITH
TAF AMD
KITH 300910Z 3009/0106 12005KT P6SM -RA OVC100
     FM301300 12007KT P6SM -RA BKN040 OVC100
      TEMPO 3013/3016 OVC025
     FM301600 09008KT 5SM -RA OVC015
     FM010000 10009KT P6SM OVC010=

USA.gov is the U.S. government's official web portal to all federal, state and local government web resources and services.